sensor_id;sensor_type;location;lat;lon;timestamp;temperature;humidity
23471;DHT22;11908;50.806;4.424;2023-02-28T00:00:26;1.20;99.90
23471;DHT22;11908;50.806;4.424;2023-02-28T00:02:51;1.20;99.90
23471;DHT22;11908;50.806;4.424;2023-02-28T00:05:19;1.20;99.90
23471;DHT22;11908;50.806;4.424;2023-02-28T00:07:46;1.20;99.90
23471;DHT22;11908;50.806;4.424;2023-02-28T00:10:17;1.10;99.90
23471;DHT22;11908;50.806;4.424;2023-02-28T00:12:50;1.10;99.90
23471;DHT22;11908;50.806;4.424;2023-02-28T00:15:16;1.10;99.90
23471;DHT22;11908;50.806;4.424;2023-02-28T00:17:42;1.10;99.90
23471;DHT22;11908;50.806;4.424;2023-02-28T00:20:09;1.10;99.90
23471;DHT22;11908;50.806;4.424;2023-02-28T00:22:36;1.10;99.90
23471;DHT22;11908;50.806;4.424;2023-02-28T00:25:03;1.00;99.90
23471;DHT22;11908;50.806;4.424;2023-02-28T00:27:30;1.00;99.90
23471;DHT22;11908;50.806;4.424;2023-02-28T00:29:55;1.10;99.90
23471;DHT22;11908;50.806;4.424;2023-02-28T00:32:25;1.10;99.90
23471;DHT22;11908;50.806;4.424;2023-02-28T00:34:50;1.00;99.90
23471;DHT22;11908;50.806;4.424;2023-02-28T00:37:16;1.00;99.90
23471;DHT22;11908;50.806;4.424;2023-02-28T00:39:42;0.90;99.90
23471;DHT22;11908;50.806;4.424;2023-02-28T00:42:07;0.80;99.90
23471;DHT22;11908;50.806;4.424;2023-02-28T00:44:36;0.80;99.90
23471;DHT22;11908;50.806;4.424;2023-02-28T00:47:01;0.90;99.90
23471;DHT22;11908;50.806;4.424;2023-02-28T00:49:27;0.90;99.90
23471;DHT22;11908;50.806;4.424;2023-02-28T00:51:54;1.00;99.90
23471;DHT22;11908;50.806;4.424;2023-02-28T00:54:21;1.00;99.90
23471;DHT22;11908;50.806;4.424;2023-02-28T00:56:47;0.90;99.90
23471;DHT22;11908;50.806;4.424;2023-02-28T00:59:14;1.00;99.90
23471;DHT22;11908;50.806;4.424;2023-02-28T01:01:39;0.90;99.90
23471;DHT22;11908;50.806;4.424;2023-02-28T01:04:05;0.80;99.90
23471;DHT22;11908;50.806;4.424;2023-02-28T01:06:31;0.80;99.90
23471;DHT22;11908;50.806;4.424;2023-02-28T01:08:58;0.90;99.90
23471;DHT22;11908;50.806;4.424;2023-02-28T01:11:24;0.80;99.90
23471;DHT22;11908;50.806;4.424;2023-02-28T01:13:49;0.70;99.90
23471;DHT22;11908;50.806;4.424;2023-02-28T01:16:15;0.70;99.90
23471;DHT22;11908;50.806;4.424;2023-02-28T01:18:41;0.70;99.90
23471;DHT22;11908;50.806;4.424;2023-02-28T01:21:09;0.70;99.90
23471;DHT22;11908;50.806;4.424;2023-02-28T01:23:35;0.80;99.90
23471;DHT22;11908;50.806;4.424;2023-02-28T01:26:10;0.90;99.90
23471;DHT22;11908;50.806;4.424;2023-02-28T01:28:36;0.90;99.90
23471;DHT22;11908;50.806;4.424;2023-02-28T01:31:02;1.00;99.90
23471;DHT22;11908;50.806;4.424;2023-02-28T01:33:28;0.90;99.90
23471;DHT22;11908;50.806;4.424;2023-02-28T01:36:09;0.80;99.90
23471;DHT22;11908;50.806;4.424;2023-02-28T01:38:39;0.80;99.90
23471;DHT22;11908;50.806;4.424;2023-02-28T01:41:06;0.80;99.90
23471;DHT22;11908;50.806;4.424;2023-02-28T01:43:53;0.80;99.90
23471;DHT22;11908;50.806;4.424;2023-02-28T01:46:19;0.80;99.90
23471;DHT22;11908;50.806;4.424;2023-02-28T01:48:49;0.80;99.90
23471;DHT22;11908;50.806;4.424;2023-02-28T01:51:30;0.80;99.90
23471;DHT22;11908;50.806;4.424;2023-02-28T01:54:01;0.70;99.90
23471;DHT22;11908;50.806;4.424;2023-02-28T01:56:30;0.80;99.90
23471;DHT22;11908;50.806;4.424;2023-02-28T01:58:57;0.70;99.90
23471;DHT22;11908;50.806;4.424;2023-02-28T02:01:25;0.70;99.90
23471;DHT22;11908;50.806;4.424;2023-02-28T02:03:55;0.70;99.90
23471;DHT22;11908;50.806;4.424;2023-02-28T02:06:29;0.70;99.90
23471;DHT22;11908;50.806;4.424;2023-02-28T02:08:55;0.70;99.90
23471;DHT22;11908;50.806;4.424;2023-02-28T02:11:22;0.60;99.90
23471;DHT22;11908;50.806;4.424;2023-02-28T02:14:21;0.60;99.90
23471;DHT22;11908;50.806;4.424;2023-02-28T02:16:52;0.50;99.90
23471;DHT22;11908;50.806;4.424;2023-02-28T02:22:40;0.40;99.90
23471;DHT22;11908;50.806;4.424;2023-02-28T02:36:40;0.50;99.90
23471;DHT22;11908;50.806;4.424;2023-02-28T02:39:23;0.40;99.90
23471;DHT22;11908;50.806;4.424;2023-02-28T02:41:56;0.40;99.90
23471;DHT22;11908;50.806;4.424;2023-02-28T02:44:35;0.20;99.90
23471;DHT22;11908;50.806;4.424;2023-02-28T02:47:15;0.30;99.90
23471;DHT22;11908;50.806;4.424;2023-02-28T02:49:49;0.20;99.90
23471;DHT22;11908;50.806;4.424;2023-02-28T02:52:20;0.30;99.90
23471;DHT22;11908;50.806;4.424;2023-02-28T02:54:48;0.30;99.90
23471;DHT22;11908;50.806;4.424;2023-02-28T02:57:23;0.20;99.90
23471;DHT22;11908;50.806;4.424;2023-02-28T02:59:53;0.20;99.90
23471;DHT22;11908;50.806;4.424;2023-02-28T03:02:21;0.10;99.90
23471;DHT22;11908;50.806;4.424;2023-02-28T03:04:52;0.20;99.90
23471;DHT22;11908;50.806;4.424;2023-02-28T03:07:18;0.10;99.90
23471;DHT22;11908;50.806;4.424;2023-02-28T03:09:52;0.20;99.90
23471;DHT22;11908;50.806;4.424;2023-02-28T03:12:18;0.20;99.90
23471;DHT22;11908;50.806;4.424;2023-02-28T03:20:05;0.20;99.90
23471;DHT22;11908;50.806;4.424;2023-02-28T03:22:43;0.30;99.90
23471;DHT22;11908;50.806;4.424;2023-02-28T03:30:56;0.20;99.90
23471;DHT22;11908;50.806;4.424;2023-02-28T03:33:30;0.20;99.90
23471;DHT22;11908;50.806;4.424;2023-02-28T03:36:01;0.10;99.90
23471;DHT22;11908;50.806;4.424;2023-02-28T03:41:10;0.10;99.90
23471;DHT22;11908;50.806;4.424;2023-02-28T03:43:41;0.10;99.90
23471;DHT22;11908;50.806;4.424;2023-02-28T03:46:10;0.20;99.90
23471;DHT22;11908;50.806;4.424;2023-02-28T03:48:44;0.20;99.90
23471;DHT22;11908;50.806;4.424;2023-02-28T03:51:16;0.20;99.90
23471;DHT22;11908;50.806;4.424;2023-02-28T03:53:56;0.10;99.90
23471;DHT22;11908;50.806;4.424;2023-02-28T03:56:45;0.00;99.90
23471;DHT22;11908;50.806;4.424;2023-02-28T03:59:18;0.10;99.90
23471;DHT22;11908;50.806;4.424;2023-02-28T04:01:47;0.20;99.90
23471;DHT22;11908;50.806;4.424;2023-02-28T04:04:15;0.30;99.90
23471;DHT22;11908;50.806;4.424;2023-02-28T04:06:42;0.20;99.90
23471;DHT22;11908;50.806;4.424;2023-02-28T04:09:11;0.10;99.90
23471;DHT22;11908;50.806;4.424;2023-02-28T04:11:39;0.10;99.90
23471;DHT22;11908;50.806;4.424;2023-02-28T04:14:06;0.00;99.90
23471;DHT22;11908;50.806;4.424;2023-02-28T04:16:33;-0.10;99.90
23471;DHT22;11908;50.806;4.424;2023-02-28T04:19:00;0.00;99.90
23471;DHT22;11908;50.806;4.424;2023-02-28T04:21:34;-0.10;99.90
23471;DHT22;11908;50.806;4.424;2023-02-28T04:24:01;-0.10;99.90
23471;DHT22;11908;50.806;4.424;2023-02-28T04:26:32;-0.10;99.90
23471;DHT22;11908;50.806;4.424;2023-02-28T04:28:58;-0.20;99.90
23471;DHT22;11908;50.806;4.424;2023-02-28T04:31:26;-0.10;99.90
23471;DHT22;11908;50.806;4.424;2023-02-28T04:33:52;-0.20;99.90
23471;DHT22;11908;50.806;4.424;2023-02-28T04:36:18;-0.10;99.90
23471;DHT22;11908;50.806;4.424;2023-02-28T04:38:44;-0.10;99.90
23471;DHT22;11908;50.806;4.424;2023-02-28T04:41:13;-0.10;99.90
23471;DHT22;11908;50.806;4.424;2023-02-28T04:43:39;0.00;99.90
23471;DHT22;11908;50.806;4.424;2023-02-28T04:46:05;0.10;99.90
23471;DHT22;11908;50.806;4.424;2023-02-28T04:48:33;-0.10;99.90
23471;DHT22;11908;50.806;4.424;2023-02-28T04:51:04;-0.20;99.90
23471;DHT22;11908;50.806;4.424;2023-02-28T04:53:31;-0.20;99.90
23471;DHT22;11908;50.806;4.424;2023-02-28T04:55:57;-0.20;99.90
23471;DHT22;11908;50.806;4.424;2023-02-28T04:58:23;-0.40;99.90
23471;DHT22;11908;50.806;4.424;2023-02-28T05:00:50;-0.30;99.90
23471;DHT22;11908;50.806;4.424;2023-02-28T05:03:16;-0.20;99.90
23471;DHT22;11908;50.806;4.424;2023-02-28T05:05:42;-0.40;99.90
23471;DHT22;11908;50.806;4.424;2023-02-28T05:08:07;-0.30;99.90
23471;DHT22;11908;50.806;4.424;2023-02-28T05:10:35;-0.40;99.90
23471;DHT22;11908;50.806;4.424;2023-02-28T05:13:01;-0.40;99.90
23471;DHT22;11908;50.806;4.424;2023-02-28T05:15:27;-0.30;99.90
23471;DHT22;11908;50.806;4.424;2023-02-28T05:17:52;-0.20;99.90
23471;DHT22;11908;50.806;4.424;2023-02-28T05:20:18;-0.30;99.90
23471;DHT22;11908;50.806;4.424;2023-02-28T05:22:44;-0.30;99.90
23471;DHT22;11908;50.806;4.424;2023-02-28T05:25:18;-0.30;99.90
23471;DHT22;11908;50.806;4.424;2023-02-28T05:27:44;-0.30;99.90
23471;DHT22;11908;50.806;4.424;2023-02-28T05:30:10;-0.40;99.90
23471;DHT22;11908;50.806;4.424;2023-02-28T05:32:38;-0.30;99.90
23471;DHT22;11908;50.806;4.424;2023-02-28T05:35:08;-0.30;99.90
23471;DHT22;11908;50.806;4.424;2023-02-28T05:37:34;-0.20;99.90
23471;DHT22;11908;50.806;4.424;2023-02-28T05:40:00;-0.20;99.90
23471;DHT22;11908;50.806;4.424;2023-02-28T05:42:26;-0.20;99.90
23471;DHT22;11908;50.806;4.424;2023-02-28T05:44:52;-0.20;99.90
23471;DHT22;11908;50.806;4.424;2023-02-28T05:47:17;-0.10;99.90
23471;DHT22;11908;50.806;4.424;2023-02-28T05:49:43;0.00;99.90
23471;DHT22;11908;50.806;4.424;2023-02-28T05:52:09;0.00;99.90
23471;DHT22;11908;50.806;4.424;2023-02-28T05:54:34;0.00;99.90
23471;DHT22;11908;50.806;4.424;2023-02-28T05:57:00;0.10;99.90
23471;DHT22;11908;50.806;4.424;2023-02-28T05:59:26;0.00;99.90
23471;DHT22;11908;50.806;4.424;2023-02-28T06:01:51;-0.10;99.90
23471;DHT22;11908;50.806;4.424;2023-02-28T06:04:20;-0.20;99.90
23471;DHT22;11908;50.806;4.424;2023-02-28T06:06:47;0.00;99.90
23471;DHT22;11908;50.806;4.424;2023-02-28T06:09:13;0.00;99.90
23471;DHT22;11908;50.806;4.424;2023-02-28T06:11:39;0.10;99.90
23471;DHT22;11908;50.806;4.424;2023-02-28T06:14:05;0.00;99.90
23471;DHT22;11908;50.806;4.424;2023-02-28T06:16:33;0.10;99.90
23471;DHT22;11908;50.806;4.424;2023-02-28T06:19:00;0.20;99.90
23471;DHT22;11908;50.806;4.424;2023-02-28T06:21:29;0.20;99.90
23471;DHT22;11908;50.806;4.424;2023-02-28T06:23:56;0.10;99.90
23471;DHT22;11908;50.806;4.424;2023-02-28T06:26:24;0.20;99.90
23471;DHT22;11908;50.806;4.424;2023-02-28T06:28:50;0.40;99.90
23471;DHT22;11908;50.806;4.424;2023-02-28T06:31:17;0.50;99.90
23471;DHT22;11908;50.806;4.424;2023-02-28T06:33:44;0.30;99.90
23471;DHT22;11908;50.806;4.424;2023-02-28T06:36:11;0.40;99.90
23471;DHT22;11908;50.806;4.424;2023-02-28T06:38:37;0.40;99.90
23471;DHT22;11908;50.806;4.424;2023-02-28T06:41:04;0.30;99.90
23471;DHT22;11908;50.806;4.424;2023-02-28T06:43:33;0.30;99.90
23471;DHT22;11908;50.806;4.424;2023-02-28T06:46:01;0.40;99.90
23471;DHT22;11908;50.806;4.424;2023-02-28T06:48:28;0.50;99.90
23471;DHT22;11908;50.806;4.424;2023-02-28T06:51:07;0.60;99.90
23471;DHT22;11908;50.806;4.424;2023-02-28T06:53:34;0.70;99.90
23471;DHT22;11908;50.806;4.424;2023-02-28T06:56:03;1.00;99.90
23471;DHT22;11908;50.806;4.424;2023-02-28T06:58:31;1.10;99.90
23471;DHT22;11908;50.806;4.424;2023-02-28T07:00:57;1.50;99.90
23471;DHT22;11908;50.806;4.424;2023-02-28T07:03:22;1.70;99.90
23471;DHT22;11908;50.806;4.424;2023-02-28T07:05:48;1.90;99.90
23471;DHT22;11908;50.806;4.424;2023-02-28T07:08:14;2.10;99.90
23471;DHT22;11908;50.806;4.424;2023-02-28T07:10:40;2.20;99.90
23471;DHT22;11908;50.806;4.424;2023-02-28T07:13:07;2.00;99.90
23471;DHT22;11908;50.806;4.424;2023-02-28T07:15:32;2.00;99.90
23471;DHT22;11908;50.806;4.424;2023-02-28T07:17:58;1.90;99.90
23471;DHT22;11908;50.806;4.424;2023-02-28T07:20:24;1.90;99.90
23471;DHT22;11908;50.806;4.424;2023-02-28T07:22:50;1.80;99.90
23471;DHT22;11908;50.806;4.424;2023-02-28T07:25:27;2.00;99.90
23471;DHT22;11908;50.806;4.424;2023-02-28T07:27:54;2.00;99.90
23471;DHT22;11908;50.806;4.424;2023-02-28T07:30:20;2.30;99.90
23471;DHT22;11908;50.806;4.424;2023-02-28T07:32:46;2.40;99.90
23471;DHT22;11908;50.806;4.424;2023-02-28T07:35:11;2.60;99.90
23471;DHT22;11908;50.806;4.424;2023-02-28T07:37:37;2.80;99.90
23471;DHT22;11908;50.806;4.424;2023-02-28T07:40:04;3.10;99.90
23471;DHT22;11908;50.806;4.424;2023-02-28T07:42:34;3.30;99.90
23471;DHT22;11908;50.806;4.424;2023-02-28T07:45:01;3.30;99.90
23471;DHT22;11908;50.806;4.424;2023-02-28T07:47:28;3.10;99.90
23471;DHT22;11908;50.806;4.424;2023-02-28T07:49:54;2.90;99.90
23471;DHT22;11908;50.806;4.424;2023-02-28T07:52:20;2.70;99.90
23471;DHT22;11908;50.806;4.424;2023-02-28T07:54:45;2.80;99.90
23471;DHT22;11908;50.806;4.424;2023-02-28T07:57:11;2.70;99.90
23471;DHT22;11908;50.806;4.424;2023-02-28T07:59:37;2.70;99.90
23471;DHT22;11908;50.806;4.424;2023-02-28T08:02:02;2.80;99.90
23471;DHT22;11908;50.806;4.424;2023-02-28T08:04:31;2.90;99.90
23471;DHT22;11908;50.806;4.424;2023-02-28T08:06:57;3.00;99.90
23471;DHT22;11908;50.806;4.424;2023-02-28T08:09:23;3.40;99.90
23471;DHT22;11908;50.806;4.424;2023-02-28T08:11:48;3.70;99.90
23471;DHT22;11908;50.806;4.424;2023-02-28T08:14:14;3.60;99.90
23471;DHT22;11908;50.806;4.424;2023-02-28T08:16:40;3.20;99.90
23471;DHT22;11908;50.806;4.424;2023-02-28T08:19:06;3.20;99.90
23471;DHT22;11908;50.806;4.424;2023-02-28T08:21:31;3.00;99.90
23471;DHT22;11908;50.806;4.424;2023-02-28T08:23:58;3.20;99.90
23471;DHT22;11908;50.806;4.424;2023-02-28T08:26:24;3.10;99.90
23471;DHT22;11908;50.806;4.424;2023-02-28T08:28:49;3.00;99.90
23471;DHT22;11908;50.806;4.424;2023-02-28T08:31:16;3.10;99.90
23471;DHT22;11908;50.806;4.424;2023-02-28T08:33:43;3.10;99.90
23471;DHT22;11908;50.806;4.424;2023-02-28T08:36:10;3.20;99.90
23471;DHT22;11908;50.806;4.424;2023-02-28T08:38:37;3.70;99.90
23471;DHT22;11908;50.806;4.424;2023-02-28T08:41:05;3.90;99.90
23471;DHT22;11908;50.806;4.424;2023-02-28T08:43:33;3.80;99.90
23471;DHT22;11908;50.806;4.424;2023-02-28T08:45:59;4.10;99.90
23471;DHT22;11908;50.806;4.424;2023-02-28T08:48:27;4.00;99.90
23471;DHT22;11908;50.806;4.424;2023-02-28T08:50:57;4.50;99.90
23471;DHT22;11908;50.806;4.424;2023-02-28T08:53:23;5.00;99.90
23471;DHT22;11908;50.806;4.424;2023-02-28T08:56:03;5.10;99.90
23471;DHT22;11908;50.806;4.424;2023-02-28T08:58:29;5.10;99.90
23471;DHT22;11908;50.806;4.424;2023-02-28T09:00:55;5.10;99.90
23471;DHT22;11908;50.806;4.424;2023-02-28T09:03:21;5.10;99.90
23471;DHT22;11908;50.806;4.424;2023-02-28T09:05:59;5.20;99.90
23471;DHT22;11908;50.806;4.424;2023-02-28T09:08:27;5.50;99.90
23471;DHT22;11908;50.806;4.424;2023-02-28T09:10:53;5.60;99.90
23471;DHT22;11908;50.806;4.424;2023-02-28T09:13:20;5.50;99.90
23471;DHT22;11908;50.806;4.424;2023-02-28T09:15:45;5.20;99.90
23471;DHT22;11908;50.806;4.424;2023-02-28T09:18:11;5.40;99.90
23471;DHT22;11908;50.806;4.424;2023-02-28T09:20:39;5.70;99.90
23471;DHT22;11908;50.806;4.424;2023-02-28T09:23:06;5.70;99.90
23471;DHT22;11908;50.806;4.424;2023-02-28T09:25:32;5.80;99.90
23471;DHT22;11908;50.806;4.424;2023-02-28T09:27:57;6.00;99.90
23471;DHT22;11908;50.806;4.424;2023-02-28T09:30:23;6.40;99.90
23471;DHT22;11908;50.806;4.424;2023-02-28T09:32:48;5.90;99.90
23471;DHT22;11908;50.806;4.424;2023-02-28T09:35:22;6.20;99.90
23471;DHT22;11908;50.806;4.424;2023-02-28T09:37:49;6.40;99.90
23471;DHT22;11908;50.806;4.424;2023-02-28T09:40:15;6.30;99.90
23471;DHT22;11908;50.806;4.424;2023-02-28T09:42:46;6.60;99.90
23471;DHT22;11908;50.806;4.424;2023-02-28T09:45:26;6.80;99.90
23471;DHT22;11908;50.806;4.424;2023-02-28T09:47:57;7.20;99.90
23471;DHT22;11908;50.806;4.424;2023-02-28T09:52:56;5.80;99.90
23471;DHT22;11908;50.806;4.424;2023-02-28T09:55:32;6.10;99.90
23471;DHT22;11908;50.806;4.424;2023-02-28T09:58:00;6.70;99.90
23471;DHT22;11908;50.806;4.424;2023-02-28T10:00:40;6.30;99.90
23471;DHT22;11908;50.806;4.424;2023-02-28T10:03:29;6.20;99.90
23471;DHT22;11908;50.806;4.424;2023-02-28T10:06:33;6.60;99.90
23471;DHT22;11908;50.806;4.424;2023-02-28T10:09:02;6.90;99.90
23471;DHT22;11908;50.806;4.424;2023-02-28T10:11:29;7.40;99.90
23471;DHT22;11908;50.806;4.424;2023-02-28T10:14:14;8.20;99.90
23471;DHT22;11908;50.806;4.424;2023-02-28T10:16:50;7.60;99.90
23471;DHT22;11908;50.806;4.424;2023-02-28T10:19:32;7.70;99.90
23471;DHT22;11908;50.806;4.424;2023-02-28T10:22:16;7.20;99.90
23471;DHT22;11908;50.806;4.424;2023-02-28T10:24:48;8.00;99.90
23471;DHT22;11908;50.806;4.424;2023-02-28T10:27:22;8.40;99.90
23471;DHT22;11908;50.806;4.424;2023-02-28T10:29:54;8.50;99.00
23471;DHT22;11908;50.806;4.424;2023-02-28T10:32:23;8.40;97.60
23471;DHT22;11908;50.806;4.424;2023-02-28T10:34:57;8.70;96.00
23471;DHT22;11908;50.806;4.424;2023-02-28T10:37:24;8.60;96.00
23471;DHT22;11908;50.806;4.424;2023-02-28T10:39:53;8.20;97.50
23471;DHT22;11908;50.806;4.424;2023-02-28T10:44:44;8.90;96.40
23471;DHT22;11908;50.806;4.424;2023-02-28T10:47:17;9.20;95.90
23471;DHT22;11908;50.806;4.424;2023-02-28T10:49:49;9.60;94.30
23471;DHT22;11908;50.806;4.424;2023-02-28T10:52:35;9.50;92.90
23471;DHT22;11908;50.806;4.424;2023-02-28T10:55:25;9.10;94.40
23471;DHT22;11908;50.806;4.424;2023-02-28T10:57:54;9.30;93.70
23471;DHT22;11908;50.806;4.424;2023-02-28T11:00:22;9.30;95.30
23471;DHT22;11908;50.806;4.424;2023-02-28T11:02:48;9.20;93.20
23471;DHT22;11908;50.806;4.424;2023-02-28T11:05:32;9.10;94.40
23471;DHT22;11908;50.806;4.424;2023-02-28T11:08:14;8.80;94.70
23471;DHT22;11908;50.806;4.424;2023-02-28T11:10:48;9.20;94.30
23471;DHT22;11908;50.806;4.424;2023-02-28T11:13:19;9.50;91.10
23471;DHT22;11908;50.806;4.424;2023-02-28T11:15:54;9.50;92.00
23471;DHT22;11908;50.806;4.424;2023-02-28T11:18:30;9.20;92.10
23471;DHT22;11908;50.806;4.424;2023-02-28T11:20:58;8.20;91.80
23471;DHT22;11908;50.806;4.424;2023-02-28T11:23:29;7.50;94.50
23471;DHT22;11908;50.806;4.424;2023-02-28T11:25:59;7.70;94.80
23471;DHT22;11908;50.806;4.424;2023-02-28T11:28:32;7.30;96.40
23471;DHT22;11908;50.806;4.424;2023-02-28T11:33:53;7.40;95.50
23471;DHT22;11908;50.806;4.424;2023-02-28T11:36:30;7.70;95.90
23471;DHT22;11908;50.806;4.424;2023-02-28T11:39:00;7.70;96.40
23471;DHT22;11908;50.806;4.424;2023-02-28T11:46:48;7.00;99.80
23471;DHT22;11908;50.806;4.424;2023-02-28T11:52:05;7.30;98.70
23471;DHT22;11908;50.806;4.424;2023-02-28T11:55:01;7.30;99.30
23471;DHT22;11908;50.806;4.424;2023-02-28T12:05:42;7.90;97.50
23471;DHT22;11908;50.806;4.424;2023-02-28T12:13:53;7.40;95.30
23471;DHT22;11908;50.806;4.424;2023-02-28T12:19:13;7.30;96.00
23471;DHT22;11908;50.806;4.424;2023-02-28T12:27:22;7.10;96.20
23471;DHT22;11908;50.806;4.424;2023-02-28T12:29:54;7.20;96.10
23471;DHT22;11908;50.806;4.424;2023-02-28T12:32:38;7.20;96.40
23471;DHT22;11908;50.806;4.424;2023-02-28T12:35:14;7.00;96.20
23471;DHT22;11908;50.806;4.424;2023-02-28T12:37:44;7.00;97.00
23471;DHT22;11908;50.806;4.424;2023-02-28T12:43:37;6.80;96.90
23471;DHT22;11908;50.806;4.424;2023-02-28T12:46:23;6.60;96.90
23471;DHT22;11908;50.806;4.424;2023-02-28T12:48:56;6.20;96.70
23471;DHT22;11908;50.806;4.424;2023-02-28T12:51:25;5.60;99.00
23471;DHT22;11908;50.806;4.424;2023-02-28T12:56:42;6.10;98.60
23471;DHT22;11908;50.806;4.424;2023-02-28T12:59:23;6.00;97.60
23471;DHT22;11908;50.806;4.424;2023-02-28T13:02:00;5.80;98.50
23471;DHT22;11908;50.806;4.424;2023-02-28T13:10:16;5.90;98.90
23471;DHT22;11908;50.806;4.424;2023-02-28T13:13:03;6.10;99.90
23471;DHT22;11908;50.806;4.424;2023-02-28T13:15:29;6.20;99.50
23471;DHT22;11908;50.806;4.424;2023-02-28T13:17:56;6.20;98.10
23471;DHT22;11908;50.806;4.424;2023-02-28T13:20:33;6.00;97.00
23471;DHT22;11908;50.806;4.424;2023-02-28T13:23:00;5.90;97.60
23471;DHT22;11908;50.806;4.424;2023-02-28T13:28:12;5.80;98.60
23471;DHT22;11908;50.806;4.424;2023-02-28T13:33:37;5.50;98.90
23471;DHT22;11908;50.806;4.424;2023-02-28T13:36:31;5.40;99.90
23471;DHT22;11908;50.806;4.424;2023-02-28T13:39:44;5.70;99.90
23471;DHT22;11908;50.806;4.424;2023-02-28T13:41:47;5.70;98.80
23471;DHT22;11908;50.806;4.424;2023-02-28T13:44:20;5.70;99.30
23471;DHT22;11908;50.806;4.424;2023-02-28T13:51:55;5.40;99.10
23471;DHT22;11908;50.806;4.424;2023-02-28T13:57:51;5.60;99.70
23471;DHT22;11908;50.806;4.424;2023-02-28T14:05:33;5.20;99.30
23471;DHT22;11908;50.806;4.424;2023-02-28T14:08:21;5.20;99.90
23471;DHT22;11908;50.806;4.424;2023-02-28T14:11:02;5.40;99.80
23471;DHT22;11908;50.806;4.424;2023-02-28T14:16:10;5.30;99.60
23471;DHT22;11908;50.806;4.424;2023-02-28T14:18:42;5.30;99.90
23471;DHT22;11908;50.806;4.424;2023-02-28T14:21:32;5.40;99.90
23471;DHT22;11908;50.806;4.424;2023-02-28T14:27:13;5.20;99.90
23471;DHT22;11908;50.806;4.424;2023-02-28T14:37:51;5.10;99.90
23471;DHT22;11908;50.806;4.424;2023-02-28T14:42:55;5.20;99.90
23471;DHT22;11908;50.806;4.424;2023-02-28T14:45:22;5.20;99.90
23471;DHT22;11908;50.806;4.424;2023-02-28T14:47:50;5.20;99.90
23471;DHT22;11908;50.806;4.424;2023-02-28T14:50:27;5.10;99.90
23471;DHT22;11908;50.806;4.424;2023-02-28T14:52:55;5.10;99.90
23471;DHT22;11908;50.806;4.424;2023-02-28T14:55:30;5.20;99.90
23471;DHT22;11908;50.806;4.424;2023-02-28T14:57:59;5.30;99.90
23471;DHT22;11908;50.806;4.424;2023-02-28T15:00:46;5.30;99.90
23471;DHT22;11908;50.806;4.424;2023-02-28T15:03:34;5.30;99.90
23471;DHT22;11908;50.806;4.424;2023-02-28T15:06:02;5.30;99.90
23471;DHT22;11908;50.806;4.424;2023-02-28T15:08:29;5.20;99.90
23471;DHT22;11908;50.806;4.424;2023-02-28T15:11:02;5.20;99.90
23471;DHT22;11908;50.806;4.424;2023-02-28T15:13:36;5.20;99.90
23471;DHT22;11908;50.806;4.424;2023-02-28T15:16:05;5.20;99.90
23471;DHT22;11908;50.806;4.424;2023-02-28T15:18:46;5.20;99.90
23471;DHT22;11908;50.806;4.424;2023-02-28T15:23:44;5.10;99.90
23471;DHT22;11908;50.806;4.424;2023-02-28T15:26:15;5.10;99.90
23471;DHT22;11908;50.806;4.424;2023-02-28T15:28:43;5.10;99.90
23471;DHT22;11908;50.806;4.424;2023-02-28T15:31:25;5.10;99.90
23471;DHT22;11908;50.806;4.424;2023-02-28T15:33:53;5.00;99.90
23471;DHT22;11908;50.806;4.424;2023-02-28T15:36:20;5.00;99.90
23471;DHT22;11908;50.806;4.424;2023-02-28T15:38:51;5.00;99.90
23471;DHT22;11908;50.806;4.424;2023-02-28T15:41:35;5.00;99.90
23471;DHT22;11908;50.806;4.424;2023-02-28T15:47:03;5.20;99.90
23471;DHT22;11908;50.806;4.424;2023-02-28T15:49:47;5.20;99.90
23471;DHT22;11908;50.806;4.424;2023-02-28T15:52:21;5.20;99.90
23471;DHT22;11908;50.806;4.424;2023-02-28T15:54:48;5.30;99.90
23471;DHT22;11908;50.806;4.424;2023-02-28T15:57:18;5.30;99.90
23471;DHT22;11908;50.806;4.424;2023-02-28T15:59:52;5.10;99.90
23471;DHT22;11908;50.806;4.424;2023-02-28T16:02:21;5.00;99.90
23471;DHT22;11908;50.806;4.424;2023-02-28T16:07:28;5.00;99.90
23471;DHT22;11908;50.806;4.424;2023-02-28T16:09:54;5.10;99.90
23471;DHT22;11908;50.806;4.424;2023-02-28T16:12:21;5.00;99.90
23471;DHT22;11908;50.806;4.424;2023-02-28T16:14:52;4.90;99.90
23471;DHT22;11908;50.806;4.424;2023-02-28T16:17:24;5.00;99.90
23471;DHT22;11908;50.806;4.424;2023-02-28T16:19:50;4.90;99.90
23471;DHT22;11908;50.806;4.424;2023-02-28T16:22:16;4.90;99.90
23471;DHT22;11908;50.806;4.424;2023-02-28T16:24:42;4.90;99.90
23471;DHT22;11908;50.806;4.424;2023-02-28T16:27:30;4.80;99.90
23471;DHT22;11908;50.806;4.424;2023-02-28T16:29:56;4.90;99.90
23471;DHT22;11908;50.806;4.424;2023-02-28T16:32:22;4.90;99.90
23471;DHT22;11908;50.806;4.424;2023-02-28T16:34:48;4.80;99.90
23471;DHT22;11908;50.806;4.424;2023-02-28T16:37:16;4.80;99.90
23471;DHT22;11908;50.806;4.424;2023-02-28T16:39:42;4.70;99.90
23471;DHT22;11908;50.806;4.424;2023-02-28T16:42:20;4.70;99.90
23471;DHT22;11908;50.806;4.424;2023-02-28T16:44:47;4.70;99.90
23471;DHT22;11908;50.806;4.424;2023-02-28T16:47:13;4.60;99.90
23471;DHT22;11908;50.806;4.424;2023-02-28T16:49:39;4.60;99.90
23471;DHT22;11908;50.806;4.424;2023-02-28T16:52:07;4.60;99.90
23471;DHT22;11908;50.806;4.424;2023-02-28T16:54:33;4.50;99.90
23471;DHT22;11908;50.806;4.424;2023-02-28T16:56:59;4.50;99.90
23471;DHT22;11908;50.806;4.424;2023-02-28T16:59:26;4.50;99.90
23471;DHT22;11908;50.806;4.424;2023-02-28T17:01:52;4.40;99.90
23471;DHT22;11908;50.806;4.424;2023-02-28T17:04:18;4.50;99.90
23471;DHT22;11908;50.806;4.424;2023-02-28T17:06:44;4.50;99.90
23471;DHT22;11908;50.806;4.424;2023-02-28T17:09:21;4.40;99.90
23471;DHT22;11908;50.806;4.424;2023-02-28T17:11:47;4.40;99.90
23471;DHT22;11908;50.806;4.424;2023-02-28T17:14:14;4.50;99.90
23471;DHT22;11908;50.806;4.424;2023-02-28T17:16:40;4.40;99.90
23471;DHT22;11908;50.806;4.424;2023-02-28T17:19:11;4.40;99.90
23471;DHT22;11908;50.806;4.424;2023-02-28T17:21:38;4.40;99.90
23471;DHT22;11908;50.806;4.424;2023-02-28T17:24:04;4.30;99.90
23471;DHT22;11908;50.806;4.424;2023-02-28T17:26:30;4.40;99.90
23471;DHT22;11908;50.806;4.424;2023-02-28T17:28:56;4.30;99.90
23471;DHT22;11908;50.806;4.424;2023-02-28T17:31:23;4.20;99.90
23471;DHT22;11908;50.806;4.424;2023-02-28T17:33:49;4.10;99.90
23471;DHT22;11908;50.806;4.424;2023-02-28T17:36:20;4.10;99.90
23471;DHT22;11908;50.806;4.424;2023-02-28T17:38:48;4.10;99.90
23471;DHT22;11908;50.806;4.424;2023-02-28T17:41:13;4.10;99.90
23471;DHT22;11908;50.806;4.424;2023-02-28T17:43:40;4.10;99.90
23471;DHT22;11908;50.806;4.424;2023-02-28T17:46:17;3.90;99.90
23471;DHT22;11908;50.806;4.424;2023-02-28T17:48:46;3.90;99.90
23471;DHT22;11908;50.806;4.424;2023-02-28T17:51:13;3.80;99.90
23471;DHT22;11908;50.806;4.424;2023-02-28T17:53:39;3.90;99.90
23471;DHT22;11908;50.806;4.424;2023-02-28T17:56:10;3.90;99.90
23471;DHT22;11908;50.806;4.424;2023-02-28T17:58:36;3.90;99.90
23471;DHT22;11908;50.806;4.424;2023-02-28T18:01:02;3.90;99.90
23471;DHT22;11908;50.806;4.424;2023-02-28T18:03:27;3.80;99.90